Погода Дарвинна 2 недели

Северная територия, Австралия

19 июня-02 июля
  • 19июня
    Сегодня
    +19°
    +33°
    Ясно и безоблачно
    ВремяПогодаТемператураВлажностьДавлениеВетер, м/сВероятность осадков
    00:30Ясно и безоблачно+20°C77 %760 мм1.1 м/с5 %
    03:30Практически безоблачно+19°C88 %760 мм2.0 м/с5 %
    06:30Ясно и безоблачно+18°C78 %760 мм2.6 м/с5 %
    09:30Ясно и безоблачно+25°C50 %761 мм3.3 м/с5 %
    12:30Ясно и безоблачно+29°C42 %760 мм3.4 м/с5 %
    15:30Ясно и безоблачно+32°C50 %758 мм1.7 м/с5 %
    18:30Ясно и безоблачно+26°C66 %758 мм3.2 м/с5 %
    21:30Ясно и безоблачно+23°C70 %759 мм0.7 м/с5 %
  • 20июня
    Четверг
    +19°
    +33°
    Облачно с прояснениями
    ВремяПогодаТемператураВлажностьДавлениеВетер, м/сВероятность осадков
    00:30Ясно и безоблачно+20°C86 %760 мм1.5 м/с5 %
    03:30Ясно и безоблачно+20°C89 %759 мм1.7 м/с5 %
    06:30Ясно и безоблачно+19°C77 %759 мм2.5 м/с4 %
    09:30Практически безоблачно+26°C62 %760 мм3.1 м/с5 %
    12:30Облачно с прояснениями+30°C52 %759 мм3.4 м/с5 %
    15:30Ясно и безоблачно+32°C54 %757 мм2.1 м/с5 %
    18:30Ясно и безоблачно+28°C70 %758 мм2.5 м/с5 %
    21:30Практически безоблачно+23°C78 %759 мм1.1 м/с5 %
  • 21июня
    Пятница
    +19°
    +32°
    Практически безоблачно
    ВремяПогодаТемператураВлажностьДавлениеВетер, м/сВероятность осадков
    00:30Небольшая облачность+21°C84 %760 мм1.5 м/с4 %
    03:30Небольшая облачность+20°C84 %759 мм2.4 м/с12 %
    06:30Облачно с прояснениями+20°C85 %760 мм3.2 м/с7 %
    09:30Облачно с прояснениями+26°C63 %761 мм4.3 м/с2 %
    12:30Практически безоблачно+30°C43 %760 мм5.3 м/с5 %
    15:30Практически безоблачно+32°C39 %758 мм4.5 м/с5 %
    18:30Практически безоблачно+29°C59 %759 мм1.4 м/с5 %
    21:30Практически безоблачно+23°C71 %761 мм1.5 м/с5 %
  • 22июня
    Суббота
    +18°
    +32°
    Облачно с прояснениями
    ВремяПогодаТемператураВлажностьДавлениеВетер, м/сВероятность осадков
    00:30Практически безоблачно+21°C70 %761 мм2.5 м/с5 %
    03:30Ясно и безоблачно+20°C59 %761 мм3.9 м/с5 %
    06:30Небольшая облачность+20°C65 %761 мм4.1 м/с5 %
    09:30Облачно с прояснениями+25°C56 %762 мм5.9 м/с5 %
    12:30Облачно с прояснениями+29°C42 %760 мм5.8 м/с5 %
    15:30Облачно с прояснениями+31°C37 %759 мм5.0 м/с5 %
    18:30Облачно с прояснениями+29°C42 %759 мм2.7 м/с5 %
    21:30Ясно и безоблачно+22°C48 %760 мм2.9 м/с5 %
  • 23июня
    Воскресенье
    +17°
    +32°
    Ясно и безоблачно
    ВремяПогодаТемператураВлажностьДавлениеВетер, м/сВероятность осадков
    00:30Ясно и безоблачно+21°C44 %761 мм4.8 м/с3 %
    03:30Ясно и безоблачно+19°C48 %760 мм5.2 м/с5 %
    06:30Ясно и безоблачно+18°C53 %760 мм4.9 м/с5 %
    09:30Ясно и безоблачно+24°C48 %761 мм5.3 м/с5 %
    12:30Ясно и безоблачно+29°C41 %759 мм4.8 м/с5 %
    15:30Ясно и безоблачно+31°C49 %758 мм2.5 м/с5 %
    18:30Ясно и безоблачно+26°C63 %758 мм2.6 м/с5 %
    21:30Небольшая облачность+23°C68 %759 мм0.9 м/с5 %
Мы используем cookies
Соглашаюсь